AirNav   Everest Fuels
 
 908 users online  

OR15 Horseman Heliport
Bend, Oregon, USA

GOING TO BEND?


FAA INFORMATION EFFECTIVE 21 MAY 2020

Location

FAA Identifier: OR15
Lat/Long: 44-08-48.4000N 121-22-15.1000W
44-08.806667N 121-22.251667W
44.1467778,-121.3708611
(estimated)
Elevation: 3420 ft. / 1042 m (estimated)
Variation: 18E (1995)
From city: 7 miles NW of BEND, OR
Time zone: UTC -7 (UTC -8 during Standard Time)
Zip code: 97701

Heliport Operations

Heliport use: Private use. Permission required prior to landing
Activation date: 06/2000
Control tower: no
ARTCC: SEATTLE CENTER
FSS: MC MINNVILLE FLIGHT SERVICE STATION
Attendance: DAWN-DUSK
Wind indicator: yes
Segmented circle: no

Heliport Communications

WX AWOS-3 at BDN (8 nm SE): 134.425 (541-382-1477)
WX ASOS at RDM (11 nm NE): 119.025 (541-504-8743)
WX AWOS-3PT at S21 (17 nm S): 128.325 (541-593-4623)

Nearby radio navigation aids

VOR radial/distance  VOR name  Freq  Var
DSDr186/7.0DESCHUTES VORTAC117.6018E

Heliport Services

Runway Information

Helipad H1

Dimensions: 24 x 24 ft. / 7 x 7 m
Surface: concrete
Traffic pattern: leftleft

Heliport Ownership and Management from official FAA records

Ownership: Privately-owned
Owner: DONALD A SVINTH
64629 HORSEMAN LANE
BEND, OR 97701
Phone 541-318-1110
Manager: DONALD A SVINTH
64629 HORSEMAN LANE
BEND, OR 97701
Phone 541-318-1110

Heliport Operational Statistics

Aircraft based on the field: 1
Helicopters: 1
    

Additional Remarks

A52-H1 15 FT BLDG 75 FT S AND 25 FT TREES 75 FT NW OF HELIPAD.
FOR CD CTC SEATTLE ARTCC AT 253-351-3694.

Instrument Procedures

There are no published instrument procedures at OR15.

Some nearby airports with instrument procedures:

KBDN - Bend Municipal Airport (8 nm SE)
KRDM - Roberts Field Airport (11 nm NE)
S21 - Sunriver Airport (17 nm S)
S39 - Prineville Airport (22 nm NE)
S33 - Madras Municipal Airport (33 nm N)
 
Loc | Ops | Rwys | IFR | FBO | Links
Com | Nav | Svcs | Stats | Notes
Area around OR15 (Horseman Heliport)
 
Road maps at: MapQuest Bing Google
 
Aerial photo
WARNING: Photo may not be current or correct
Aerial photo of OR15 (Horseman Heliport)
Do you have a better or more recent aerial photo of Horseman Heliport that you would like to share? If so, please send us your photo.

 
Sectional chart

 
Airport distance calculator
Flying to Horseman Heliport? Find the distance to fly.

From to OR15

Sunrise and sunset
Times for 06-Jun-2020
 Local
(UTC-7)
 Zulu
(UTC)
Morning civil twilight04:4811:48
Sunrise05:2412:24
Sunset20:4503:45
Evening civil twilight21:2104:21

Current date and time
Zulu (UTC)  07-Jun-2020 01:46:52
Local (UTC-7)  06-Jun-2020 18:46:52
 
METAR
KBDN 
8nm SE 
070135Z AUTO 31006G12KT 10SM 10/00 A2985 RMK AO2
KRDM 
11nm NE 
070056Z 29013G20KT 10SM BKN090 11/00 A2981 RMK AO2 PK WND 29027/0007 SLP096 T01110000
KS21 
17nm S 
070135Z AUTO 25011KT 10SM FEW023 SCT028 SCT075 06/01 A2989 RMK AO2
TAF
KBDN 
8nm SE 
062137Z 0622/0718 36006KT P6SM SCT050 FM070000 29014KT P6SM VCSH BKN040 OVC050 FM070500 23011KT P6SM OVC050 FM071500 24010KT P6SM OVC040
KRDM 
11nm NE 
062136Z 0622/0718 29014KT P6SM VCSH SCT050 BKN070 FM070000 29017G25KT P6SM VCSH BKN050 OVC060 FM070400 30017G24KT P6SM OVC050 FM070900 23015KT P6SM OVC050 FM071500 28014KT P6SM OVC040
NOTAMs
Click for the latest NOTAMs
NOTAMs are issued by the DoD/FAA and will open in a separate window not controlled by AirNav.

 

 
 

Would you like to see your business listed on this page?

 If your business provides an interesting product or service to pilots, flight crews, aircraft, or users of the Horseman Heliport, you should consider listing it here.  To start the listing process, click on the button below
 
Add a business
 

Other Pages about Horseman Heliport

Update a link
 
Copyright © AirNav, LLC. All rights reserved. Privacy Policy  Contact